sensor_id;sensor_type;location;lat;lon;timestamp;P1;durP1;ratioP1;P2;durP2;ratioP2
20814;SDS011;10568;48.176;16.316;2024-02-21T00:01:28;6.30;;;2.03;;
20814;SDS011;10568;48.176;16.316;2024-02-21T00:03:56;4.80;;;2.10;;
20814;SDS011;10568;48.176;16.316;2024-02-21T00:06:23;4.43;;;2.00;;
20814;SDS011;10568;48.176;16.316;2024-02-21T00:08:52;3.73;;;1.60;;
20814;SDS011;10568;48.176;16.316;2024-02-21T00:11:20;4.17;;;1.70;;
20814;SDS011;10568;48.176;16.316;2024-02-21T00:13:48;4.87;;;1.87;;
20814;SDS011;10568;48.176;16.316;2024-02-21T00:16:17;5.57;;;1.80;;
20814;SDS011;10568;48.176;16.316;2024-02-21T00:18:45;6.10;;;1.73;;
20814;SDS011;10568;48.176;16.316;2024-02-21T00:21:12;4.43;;;2.10;;
20814;SDS011;10568;48.176;16.316;2024-02-21T00:23:44;4.23;;;1.67;;
20814;SDS011;10568;48.176;16.316;2024-02-21T00:26:13;6.23;;;2.30;;
20814;SDS011;10568;48.176;16.316;2024-02-21T00:28:40;4.53;;;1.63;;
20814;SDS011;10568;48.176;16.316;2024-02-21T00:31:08;5.33;;;1.90;;
20814;SDS011;10568;48.176;16.316;2024-02-21T00:33:35;5.30;;;1.70;;
20814;SDS011;10568;48.176;16.316;2024-02-21T00:36:03;3.77;;;1.60;;
20814;SDS011;10568;48.176;16.316;2024-02-21T00:38:30;4.90;;;1.93;;
20814;SDS011;10568;48.176;16.316;2024-02-21T00:40:58;3.87;;;1.90;;
20814;SDS011;10568;48.176;16.316;2024-02-21T00:43:26;3.80;;;1.67;;
20814;SDS011;10568;48.176;16.316;2024-02-21T00:45:53;4.13;;;1.83;;
20814;SDS011;10568;48.176;16.316;2024-02-21T00:48:21;5.00;;;2.00;;
20814;SDS011;10568;48.176;16.316;2024-02-21T00:50:49;7.00;;;1.97;;
20814;SDS011;10568;48.176;16.316;2024-02-21T00:53:17;6.67;;;2.20;;
20814;SDS011;10568;48.176;16.316;2024-02-21T00:55:44;5.47;;;1.80;;
20814;SDS011;10568;48.176;16.316;2024-02-21T00:58:12;5.27;;;2.20;;
20814;SDS011;10568;48.176;16.316;2024-02-21T01:00:39;5.07;;;1.60;;
20814;SDS011;10568;48.176;16.316;2024-02-21T01:03:07;6.63;;;1.87;;
20814;SDS011;10568;48.176;16.316;2024-02-21T01:05:34;6.23;;;1.50;;
20814;SDS011;10568;48.176;16.316;2024-02-21T01:08:02;5.57;;;1.70;;
20814;SDS011;10568;48.176;16.316;2024-02-21T01:10:29;3.30;;;1.77;;
20814;SDS011;10568;48.176;16.316;2024-02-21T01:12:57;6.97;;;1.80;;
20814;SDS011;10568;48.176;16.316;2024-02-21T01:15:25;3.87;;;1.70;;
20814;SDS011;10568;48.176;16.316;2024-02-21T01:17:52;6.63;;;1.37;;
20814;SDS011;10568;48.176;16.316;2024-02-21T01:20:21;2.83;;;1.53;;
20814;SDS011;10568;48.176;16.316;2024-02-21T01:22:49;4.63;;;1.50;;
20814;SDS011;10568;48.176;16.316;2024-02-21T01:25:17;6.53;;;1.73;;
20814;SDS011;10568;48.176;16.316;2024-02-21T01:27:44;3.90;;;1.90;;
20814;SDS011;10568;48.176;16.316;2024-02-21T01:30:12;3.27;;;1.70;;
20814;SDS011;10568;48.176;16.316;2024-02-21T01:32:39;3.53;;;1.70;;
20814;SDS011;10568;48.176;16.316;2024-02-21T01:35:08;7.00;;;1.90;;
20814;SDS011;10568;48.176;16.316;2024-02-21T01:37:35;3.83;;;1.43;;
20814;SDS011;10568;48.176;16.316;2024-02-21T01:40:03;3.93;;;1.70;;
20814;SDS011;10568;48.176;16.316;2024-02-21T01:42:30;6.90;;;1.77;;
20814;SDS011;10568;48.176;16.316;2024-02-21T01:44:58;7.63;;;2.00;;
20814;SDS011;10568;48.176;16.316;2024-02-21T01:47:25;6.00;;;1.50;;
20814;SDS011;10568;48.176;16.316;2024-02-21T01:49:53;6.83;;;1.93;;
20814;SDS011;10568;48.176;16.316;2024-02-21T01:52:20;3.83;;;1.73;;
20814;SDS011;10568;48.176;16.316;2024-02-21T01:54:48;4.87;;;2.07;;
20814;SDS011;10568;48.176;16.316;2024-02-21T01:57:16;5.70;;;1.90;;
20814;SDS011;10568;48.176;16.316;2024-02-21T01:59:45;5.17;;;1.70;;
20814;SDS011;10568;48.176;16.316;2024-02-21T02:02:12;5.27;;;1.73;;
20814;SDS011;10568;48.176;16.316;2024-02-21T02:04:40;5.47;;;2.07;;
20814;SDS011;10568;48.176;16.316;2024-02-21T02:07:08;7.63;;;2.20;;
20814;SDS011;10568;48.176;16.316;2024-02-21T02:09:36;3.73;;;1.80;;
20814;SDS011;10568;48.176;16.316;2024-02-21T02:12:04;5.50;;;1.63;;
20814;SDS011;10568;48.176;16.316;2024-02-21T02:14:32;5.20;;;1.60;;
20814;SDS011;10568;48.176;16.316;2024-02-21T02:16:59;5.07;;;1.97;;
20814;SDS011;10568;48.176;16.316;2024-02-21T02:19:27;5.27;;;2.30;;
20814;SDS011;10568;48.176;16.316;2024-02-21T02:21:56;4.60;;;1.80;;
20814;SDS011;10568;48.176;16.316;2024-02-21T02:24:33;5.57;;;1.83;;
20814;SDS011;10568;48.176;16.316;2024-02-21T02:27:00;3.77;;;1.43;;
20814;SDS011;10568;48.176;16.316;2024-02-21T02:29:28;5.37;;;1.77;;
20814;SDS011;10568;48.176;16.316;2024-02-21T02:31:56;2.87;;;1.47;;
20814;SDS011;10568;48.176;16.316;2024-02-21T02:34:23;2.97;;;1.60;;
20814;SDS011;10568;48.176;16.316;2024-02-21T02:36:51;5.23;;;1.53;;
20814;SDS011;10568;48.176;16.316;2024-02-21T02:39:18;4.60;;;1.70;;
20814;SDS011;10568;48.176;16.316;2024-02-21T02:41:45;9.07;;;1.97;;
20814;SDS011;10568;48.176;16.316;2024-02-21T02:44:13;6.67;;;2.00;;
20814;SDS011;10568;48.176;16.316;2024-02-21T02:46:40;7.23;;;2.30;;
20814;SDS011;10568;48.176;16.316;2024-02-21T02:49:08;5.80;;;1.70;;
20814;SDS011;10568;48.176;16.316;2024-02-21T02:51:43;4.73;;;1.73;;
20814;SDS011;10568;48.176;16.316;2024-02-21T02:54:17;6.97;;;1.73;;
20814;SDS011;10568;48.176;16.316;2024-02-21T02:56:45;6.87;;;2.00;;
20814;SDS011;10568;48.176;16.316;2024-02-21T02:59:13;6.50;;;2.03;;
20814;SDS011;10568;48.176;16.316;2024-02-21T03:01:40;4.30;;;1.63;;
20814;SDS011;10568;48.176;16.316;2024-02-21T03:04:08;3.57;;;1.50;;
20814;SDS011;10568;48.176;16.316;2024-02-21T03:06:35;6.53;;;2.03;;
20814;SDS011;10568;48.176;16.316;2024-02-21T03:09:03;4.40;;;2.10;;
20814;SDS011;10568;48.176;16.316;2024-02-21T03:11:35;3.03;;;1.73;;
20814;SDS011;10568;48.176;16.316;2024-02-21T03:14:04;5.70;;;2.10;;
20814;SDS011;10568;48.176;16.316;2024-02-21T03:16:31;3.63;;;1.67;;
20814;SDS011;10568;48.176;16.316;2024-02-21T03:18:59;4.70;;;2.10;;
20814;SDS011;10568;48.176;16.316;2024-02-21T03:21:26;5.07;;;1.77;;
20814;SDS011;10568;48.176;16.316;2024-02-21T03:23:54;4.80;;;1.50;;
20814;SDS011;10568;48.176;16.316;2024-02-21T03:26:21;5.27;;;1.67;;
20814;SDS011;10568;48.176;16.316;2024-02-21T03:28:49;5.23;;;1.67;;
20814;SDS011;10568;48.176;16.316;2024-02-21T03:31:16;7.10;;;2.10;;
20814;SDS011;10568;48.176;16.316;2024-02-21T03:33:44;3.60;;;1.60;;
20814;SDS011;10568;48.176;16.316;2024-02-21T03:36:14;6.03;;;1.90;;
20814;SDS011;10568;48.176;16.316;2024-02-21T03:38:44;6.87;;;1.97;;
20814;SDS011;10568;48.176;16.316;2024-02-21T03:41:11;4.93;;;1.90;;
20814;SDS011;10568;48.176;16.316;2024-02-21T03:43:38;2.83;;;1.47;;
20814;SDS011;10568;48.176;16.316;2024-02-21T03:46:06;5.93;;;2.00;;
20814;SDS011;10568;48.176;16.316;2024-02-21T03:48:34;4.73;;;1.87;;
20814;SDS011;10568;48.176;16.316;2024-02-21T03:51:01;2.73;;;1.53;;
20814;SDS011;10568;48.176;16.316;2024-02-21T03:53:29;6.53;;;1.70;;
20814;SDS011;10568;48.176;16.316;2024-02-21T03:55:56;5.83;;;1.80;;
20814;SDS011;10568;48.176;16.316;2024-02-21T03:58:29;4.57;;;1.67;;
20814;SDS011;10568;48.176;16.316;2024-02-21T04:00:59;6.23;;;1.80;;
20814;SDS011;10568;48.176;16.316;2024-02-21T04:03:28;5.17;;;1.53;;
20814;SDS011;10568;48.176;16.316;2024-02-21T04:05:56;4.20;;;1.50;;
20814;SDS011;10568;48.176;16.316;2024-02-21T04:08:24;6.27;;;1.87;;
20814;SDS011;10568;48.176;16.316;2024-02-21T04:10:51;3.67;;;1.43;;
20814;SDS011;10568;48.176;16.316;2024-02-21T04:13:19;5.90;;;1.50;;
20814;SDS011;10568;48.176;16.316;2024-02-21T04:15:46;3.80;;;1.60;;
20814;SDS011;10568;48.176;16.316;2024-02-21T04:18:14;3.60;;;1.50;;
20814;SDS011;10568;48.176;16.316;2024-02-21T04:20:41;3.67;;;1.77;;
20814;SDS011;10568;48.176;16.316;2024-02-21T04:23:10;5.13;;;1.93;;
20814;SDS011;10568;48.176;16.316;2024-02-21T04:25:37;5.73;;;1.90;;
20814;SDS011;10568;48.176;16.316;2024-02-21T04:28:05;3.50;;;1.63;;
20814;SDS011;10568;48.176;16.316;2024-02-21T04:30:33;5.77;;;1.73;;
20814;SDS011;10568;48.176;16.316;2024-02-21T04:33:00;4.00;;;1.70;;
20814;SDS011;10568;48.176;16.316;2024-02-21T04:35:28;5.43;;;2.07;;
20814;SDS011;10568;48.176;16.316;2024-02-21T04:37:55;4.03;;;1.60;;
20814;SDS011;10568;48.176;16.316;2024-02-21T04:40:23;6.50;;;1.90;;
20814;SDS011;10568;48.176;16.316;2024-02-21T04:42:50;2.70;;;1.63;;
20814;SDS011;10568;48.176;16.316;2024-02-21T04:45:18;5.13;;;1.60;;
20814;SDS011;10568;48.176;16.316;2024-02-21T04:47:46;5.47;;;1.73;;
20814;SDS011;10568;48.176;16.316;2024-02-21T04:50:13;3.80;;;1.63;;
20814;SDS011;10568;48.176;16.316;2024-02-21T04:52:41;6.03;;;1.70;;
20814;SDS011;10568;48.176;16.316;2024-02-21T04:55:08;7.07;;;1.70;;
20814;SDS011;10568;48.176;16.316;2024-02-21T04:57:36;2.83;;;1.40;;
20814;SDS011;10568;48.176;16.316;2024-02-21T05:00:03;4.27;;;1.20;;
20814;SDS011;10568;48.176;16.316;2024-02-21T05:02:32;4.47;;;1.60;;
20814;SDS011;10568;48.176;16.316;2024-02-21T05:05:00;4.80;;;1.70;;
20814;SDS011;10568;48.176;16.316;2024-02-21T05:07:27;4.23;;;1.67;;
20814;SDS011;10568;48.176;16.316;2024-02-21T05:09:55;3.33;;;1.80;;
20814;SDS011;10568;48.176;16.316;2024-02-21T05:12:23;3.53;;;1.60;;
20814;SDS011;10568;48.176;16.316;2024-02-21T05:14:50;4.33;;;1.67;;
20814;SDS011;10568;48.176;16.316;2024-02-21T05:17:18;3.77;;;1.27;;
20814;SDS011;10568;48.176;16.316;2024-02-21T05:19:45;5.37;;;1.67;;
20814;SDS011;10568;48.176;16.316;2024-02-21T05:22:13;5.67;;;1.40;;
20814;SDS011;10568;48.176;16.316;2024-02-21T05:24:40;2.67;;;1.37;;
20814;SDS011;10568;48.176;16.316;2024-02-21T05:27:08;6.50;;;1.80;;
20814;SDS011;10568;48.176;16.316;2024-02-21T05:29:35;6.10;;;1.87;;
20814;SDS011;10568;48.176;16.316;2024-02-21T05:32:03;3.80;;;1.93;;
20814;SDS011;10568;48.176;16.316;2024-02-21T05:34:30;3.80;;;1.73;;
20814;SDS011;10568;48.176;16.316;2024-02-21T05:36:58;5.20;;;1.80;;
20814;SDS011;10568;48.176;16.316;2024-02-21T05:39:27;2.10;;;1.30;;
20814;SDS011;10568;48.176;16.316;2024-02-21T05:41:56;6.67;;;1.60;;
20814;SDS011;10568;48.176;16.316;2024-02-21T05:44:23;3.00;;;1.50;;
20814;SDS011;10568;48.176;16.316;2024-02-21T05:46:53;2.80;;;1.50;;
20814;SDS011;10568;48.176;16.316;2024-02-21T05:49:21;2.87;;;1.70;;
20814;SDS011;10568;48.176;16.316;2024-02-21T05:51:50;3.00;;;1.33;;
20814;SDS011;10568;48.176;16.316;2024-02-21T05:54:17;3.07;;;1.20;;
20814;SDS011;10568;48.176;16.316;2024-02-21T05:56:45;3.10;;;1.20;;
20814;SDS011;10568;48.176;16.316;2024-02-21T05:59:13;6.57;;;1.83;;
20814;SDS011;10568;48.176;16.316;2024-02-21T06:01:41;4.17;;;1.57;;
20814;SDS011;10568;48.176;16.316;2024-02-21T06:04:08;3.40;;;1.37;;
20814;SDS011;10568;48.176;16.316;2024-02-21T06:06:36;3.27;;;1.20;;
20814;SDS011;10568;48.176;16.316;2024-02-21T06:09:04;5.77;;;1.50;;
20814;SDS011;10568;48.176;16.316;2024-02-21T06:11:31;2.13;;;1.03;;
20814;SDS011;10568;48.176;16.316;2024-02-21T06:13:59;4.00;;;1.67;;
20814;SDS011;10568;48.176;16.316;2024-02-21T06:16:27;1.43;;;1.30;;
20814;SDS011;10568;48.176;16.316;2024-02-21T06:18:55;5.13;;;1.47;;
20814;SDS011;10568;48.176;16.316;2024-02-21T06:21:22;4.20;;;1.27;;
20814;SDS011;10568;48.176;16.316;2024-02-21T06:23:50;3.30;;;1.57;;
20814;SDS011;10568;48.176;16.316;2024-02-21T06:26:17;3.00;;;1.60;;
20814;SDS011;10568;48.176;16.316;2024-02-21T06:28:45;4.80;;;1.70;;
20814;SDS011;10568;48.176;16.316;2024-02-21T06:31:13;4.07;;;1.53;;
20814;SDS011;10568;48.176;16.316;2024-02-21T06:33:42;3.93;;;1.47;;
20814;SDS011;10568;48.176;16.316;2024-02-21T06:36:10;2.70;;;1.50;;
20814;SDS011;10568;48.176;16.316;2024-02-21T06:38:38;5.17;;;1.50;;
20814;SDS011;10568;48.176;16.316;2024-02-21T06:41:06;1.93;;;1.40;;
20814;SDS011;10568;48.176;16.316;2024-02-21T06:43:33;2.07;;;1.30;;
20814;SDS011;10568;48.176;16.316;2024-02-21T06:46:01;4.93;;;1.63;;
20814;SDS011;10568;48.176;16.316;2024-02-21T06:48:28;3.37;;;1.40;;
20814;SDS011;10568;48.176;16.316;2024-02-21T06:50:56;1.47;;;1.07;;
20814;SDS011;10568;48.176;16.316;2024-02-21T06:53:23;4.70;;;1.83;;
20814;SDS011;10568;48.176;16.316;2024-02-21T06:55:51;3.33;;;1.20;;
20814;SDS011;10568;48.176;16.316;2024-02-21T06:58:18;4.93;;;1.50;;
20814;SDS011;10568;48.176;16.316;2024-02-21T07:00:46;5.37;;;1.50;;
20814;SDS011;10568;48.176;16.316;2024-02-21T07:03:13;3.83;;;1.63;;
20814;SDS011;10568;48.176;16.316;2024-02-21T07:08:33;2.53;;;1.60;;
20814;SDS011;10568;48.176;16.316;2024-02-21T07:11:01;4.83;;;1.30;;
20814;SDS011;10568;48.176;16.316;2024-02-21T07:13:28;2.53;;;1.50;;
20814;SDS011;10568;48.176;16.316;2024-02-21T07:15:56;4.53;;;1.70;;
20814;SDS011;10568;48.176;16.316;2024-02-21T07:18:24;3.17;;;1.47;;
20814;SDS011;10568;48.176;16.316;2024-02-21T07:20:54;5.07;;;1.63;;
20814;SDS011;10568;48.176;16.316;2024-02-21T07:23:22;1.90;;;1.40;;
20814;SDS011;10568;48.176;16.316;2024-02-21T07:25:49;3.57;;;1.20;;
20814;SDS011;10568;48.176;16.316;2024-02-21T07:28:17;1.70;;;1.20;;
20814;SDS011;10568;48.176;16.316;2024-02-21T07:30:44;3.50;;;1.70;;
20814;SDS011;10568;48.176;16.316;2024-02-21T07:33:12;4.47;;;1.50;;
20814;SDS011;10568;48.176;16.316;2024-02-21T07:35:40;4.37;;;1.53;;
20814;SDS011;10568;48.176;16.316;2024-02-21T07:38:08;5.40;;;1.73;;
20814;SDS011;10568;48.176;16.316;2024-02-21T07:40:40;4.27;;;1.47;;
20814;SDS011;10568;48.176;16.316;2024-02-21T07:43:07;5.57;;;1.27;;
20814;SDS011;10568;48.176;16.316;2024-02-21T07:45:35;3.43;;;1.40;;
20814;SDS011;10568;48.176;16.316;2024-02-21T07:48:02;2.70;;;1.20;;
20814;SDS011;10568;48.176;16.316;2024-02-21T07:50:30;3.93;;;1.57;;
20814;SDS011;10568;48.176;16.316;2024-02-21T07:52:58;4.67;;;1.63;;
20814;SDS011;10568;48.176;16.316;2024-02-21T07:55:25;3.47;;;1.30;;
20814;SDS011;10568;48.176;16.316;2024-02-21T07:57:53;3.60;;;1.30;;
20814;SDS011;10568;48.176;16.316;2024-02-21T08:00:20;2.87;;;1.30;;
20814;SDS011;10568;48.176;16.316;2024-02-21T08:02:48;3.77;;;1.20;;
20814;SDS011;10568;48.176;16.316;2024-02-21T08:05:16;3.87;;;1.47;;
20814;SDS011;10568;48.176;16.316;2024-02-21T08:07:44;4.60;;;1.50;;
20814;SDS011;10568;48.176;16.316;2024-02-21T08:10:11;3.90;;;1.23;;
20814;SDS011;10568;48.176;16.316;2024-02-21T08:12:39;2.93;;;1.13;;
20814;SDS011;10568;48.176;16.316;2024-02-21T08:15:06;3.23;;;1.13;;
20814;SDS011;10568;48.176;16.316;2024-02-21T08:17:37;1.80;;;1.30;;
20814;SDS011;10568;48.176;16.316;2024-02-21T08:20:04;4.77;;;1.40;;
20814;SDS011;10568;48.176;16.316;2024-02-21T08:22:32;2.50;;;1.10;;
20814;SDS011;10568;48.176;16.316;2024-02-21T08:25:00;4.60;;;1.17;;
20814;SDS011;10568;48.176;16.316;2024-02-21T08:27:27;1.57;;;1.00;;
20814;SDS011;10568;48.176;16.316;2024-02-21T08:29:55;2.07;;;0.97;;
20814;SDS011;10568;48.176;16.316;2024-02-21T08:32:22;3.83;;;1.10;;
20814;SDS011;10568;48.176;16.316;2024-02-21T08:34:50;3.10;;;0.97;;
20814;SDS011;10568;48.176;16.316;2024-02-21T08:37:18;2.40;;;1.03;;
20814;SDS011;10568;48.176;16.316;2024-02-21T08:39:47;3.57;;;1.10;;
20814;SDS011;10568;48.176;16.316;2024-02-21T08:42:16;2.60;;;1.07;;
20814;SDS011;10568;48.176;16.316;2024-02-21T08:44:44;4.17;;;1.10;;
20814;SDS011;10568;48.176;16.316;2024-02-21T08:47:12;2.17;;;1.00;;
20814;SDS011;10568;48.176;16.316;2024-02-21T08:49:39;3.70;;;1.23;;
20814;SDS011;10568;48.176;16.316;2024-02-21T08:52:07;2.87;;;1.20;;
20814;SDS011;10568;48.176;16.316;2024-02-21T08:54:35;1.33;;;0.90;;
20814;SDS011;10568;48.176;16.316;2024-02-21T08:57:02;3.03;;;0.97;;
20814;SDS011;10568;48.176;16.316;2024-02-21T08:59:30;7.07;;;1.30;;
20814;SDS011;10568;48.176;16.316;2024-02-21T09:01:58;4.77;;;1.20;;
20814;SDS011;10568;48.176;16.316;2024-02-21T09:04:26;3.57;;;1.20;;
20814;SDS011;10568;48.176;16.316;2024-02-21T09:06:54;3.53;;;1.00;;
20814;SDS011;10568;48.176;16.316;2024-02-21T09:09:22;5.37;;;1.27;;
20814;SDS011;10568;48.176;16.316;2024-02-21T09:11:53;1.67;;;0.90;;
20814;SDS011;10568;48.176;16.316;2024-02-21T09:14:21;2.17;;;0.83;;
20814;SDS011;10568;48.176;16.316;2024-02-21T09:16:49;4.13;;;1.37;;
20814;SDS011;10568;48.176;16.316;2024-02-21T09:19:16;2.70;;;1.10;;
20814;SDS011;10568;48.176;16.316;2024-02-21T09:21:44;4.13;;;1.13;;
20814;SDS011;10568;48.176;16.316;2024-02-21T09:24:12;4.10;;;1.30;;
20814;SDS011;10568;48.176;16.316;2024-02-21T09:26:40;3.73;;;1.10;;
20814;SDS011;10568;48.176;16.316;2024-02-21T09:29:07;2.30;;;1.20;;
20814;SDS011;10568;48.176;16.316;2024-02-21T09:31:35;2.80;;;1.30;;
20814;SDS011;10568;48.176;16.316;2024-02-21T09:34:05;3.77;;;1.20;;
20814;SDS011;10568;48.176;16.316;2024-02-21T09:36:33;2.87;;;1.23;;
20814;SDS011;10568;48.176;16.316;2024-02-21T09:39:00;1.77;;;1.10;;
20814;SDS011;10568;48.176;16.316;2024-02-21T09:41:28;3.30;;;1.47;;
20814;SDS011;10568;48.176;16.316;2024-02-21T09:43:56;6.03;;;1.30;;
20814;SDS011;10568;48.176;16.316;2024-02-21T09:46:24;3.67;;;1.17;;
20814;SDS011;10568;48.176;16.316;2024-02-21T09:52:09;2.90;;;1.23;;
20814;SDS011;10568;48.176;16.316;2024-02-21T09:54:40;5.93;;;1.13;;
20814;SDS011;10568;48.176;16.316;2024-02-21T09:57:11;5.00;;;1.23;;
20814;SDS011;10568;48.176;16.316;2024-02-21T09:59:39;2.97;;;1.20;;
20814;SDS011;10568;48.176;16.316;2024-02-21T10:02:10;2.97;;;1.00;;
20814;SDS011;10568;48.176;16.316;2024-02-21T10:04:42;2.53;;;1.03;;
20814;SDS011;10568;48.176;16.316;2024-02-21T10:07:09;2.00;;;1.10;;
20814;SDS011;10568;48.176;16.316;2024-02-21T10:09:38;1.47;;;1.00;;
20814;SDS011;10568;48.176;16.316;2024-02-21T10:12:07;3.83;;;1.40;;
20814;SDS011;10568;48.176;16.316;2024-02-21T10:14:39;8.40;;;1.23;;
20814;SDS011;10568;48.176;16.316;2024-02-21T10:17:08;3.70;;;1.00;;
20814;SDS011;10568;48.176;16.316;2024-02-21T10:19:41;3.73;;;1.03;;
20814;SDS011;10568;48.176;16.316;2024-02-21T10:22:09;4.70;;;1.23;;
20814;SDS011;10568;48.176;16.316;2024-02-21T10:24:37;5.27;;;1.30;;
20814;SDS011;10568;48.176;16.316;2024-02-21T10:27:08;2.37;;;1.17;;
20814;SDS011;10568;48.176;16.316;2024-02-21T10:29:38;3.47;;;1.10;;
20814;SDS011;10568;48.176;16.316;2024-02-21T10:32:10;4.37;;;1.30;;
20814;SDS011;10568;48.176;16.316;2024-02-21T10:34:40;4.77;;;1.20;;
20814;SDS011;10568;48.176;16.316;2024-02-21T10:37:08;3.37;;;1.10;;
20814;SDS011;10568;48.176;16.316;2024-02-21T10:39:39;2.70;;;0.93;;
20814;SDS011;10568;48.176;16.316;2024-02-21T10:42:10;4.43;;;1.07;;
20814;SDS011;10568;48.176;16.316;2024-02-21T10:44:40;2.30;;;1.17;;
20814;SDS011;10568;48.176;16.316;2024-02-21T10:47:09;4.60;;;1.30;;
20814;SDS011;10568;48.176;16.316;2024-02-21T10:49:39;4.97;;;1.30;;
20814;SDS011;10568;48.176;16.316;2024-02-21T10:54:52;3.17;;;1.13;;
20814;SDS011;10568;48.176;16.316;2024-02-21T10:57:31;5.97;;;1.23;;
20814;SDS011;10568;48.176;16.316;2024-02-21T10:59:58;1.80;;;0.90;;
20814;SDS011;10568;48.176;16.316;2024-02-21T11:02:27;7.93;;;1.30;;
20814;SDS011;10568;48.176;16.316;2024-02-21T11:04:57;4.63;;;1.27;;
20814;SDS011;10568;48.176;16.316;2024-02-21T11:07:25;3.50;;;1.20;;
20814;SDS011;10568;48.176;16.316;2024-02-21T11:09:53;6.57;;;1.57;;
20814;SDS011;10568;48.176;16.316;2024-02-21T11:12:22;4.53;;;1.30;;
20814;SDS011;10568;48.176;16.316;2024-02-21T11:14:52;3.33;;;1.07;;
20814;SDS011;10568;48.176;16.316;2024-02-21T11:17:20;4.30;;;1.40;;
20814;SDS011;10568;48.176;16.316;2024-02-21T11:19:49;5.83;;;1.40;;
20814;SDS011;10568;48.176;16.316;2024-02-21T11:22:17;4.20;;;1.17;;
20814;SDS011;10568;48.176;16.316;2024-02-21T11:24:46;2.40;;;1.00;;
20814;SDS011;10568;48.176;16.316;2024-02-21T11:30:00;3.30;;;1.10;;
20814;SDS011;10568;48.176;16.316;2024-02-21T11:32:31;2.97;;;1.23;;
20814;SDS011;10568;48.176;16.316;2024-02-21T11:37:32;4.63;;;1.23;;
20814;SDS011;10568;48.176;16.316;2024-02-21T11:40:00;3.70;;;1.00;;
20814;SDS011;10568;48.176;16.316;2024-02-21T11:42:30;3.07;;;1.03;;
20814;SDS011;10568;48.176;16.316;2024-02-21T11:44:59;2.67;;;1.23;;
20814;SDS011;10568;48.176;16.316;2024-02-21T11:47:30;4.33;;;0.97;;
20814;SDS011;10568;48.176;16.316;2024-02-21T11:49:57;2.40;;;1.03;;
20814;SDS011;10568;48.176;16.316;2024-02-21T11:52:25;2.83;;;1.00;;
20814;SDS011;10568;48.176;16.316;2024-02-21T11:54:55;4.30;;;1.20;;
20814;SDS011;10568;48.176;16.316;2024-02-21T11:57:30;3.07;;;1.30;;
20814;SDS011;10568;48.176;16.316;2024-02-21T11:59:58;6.87;;;1.70;;
20814;SDS011;10568;48.176;16.316;2024-02-21T12:02:32;5.20;;;1.20;;
20814;SDS011;10568;48.176;16.316;2024-02-21T12:04:59;3.83;;;1.03;;
20814;SDS011;10568;48.176;16.316;2024-02-21T12:07:27;2.50;;;0.97;;
20814;SDS011;10568;48.176;16.316;2024-02-21T12:09:58;3.20;;;1.00;;
20814;SDS011;10568;48.176;16.316;2024-02-21T12:12:27;2.43;;;1.07;;
20814;SDS011;10568;48.176;16.316;2024-02-21T12:14:55;3.20;;;1.20;;
20814;SDS011;10568;48.176;16.316;2024-02-21T12:17:26;6.07;;;1.17;;
20814;SDS011;10568;48.176;16.316;2024-02-21T12:19:54;1.93;;;1.00;;
20814;SDS011;10568;48.176;16.316;2024-02-21T12:22:22;3.03;;;0.80;;
20814;SDS011;10568;48.176;16.316;2024-02-21T12:24:49;4.30;;;1.63;;
20814;SDS011;10568;48.176;16.316;2024-02-21T12:27:17;4.33;;;1.00;;
20814;SDS011;10568;48.176;16.316;2024-02-21T12:29:44;3.30;;;1.07;;
20814;SDS011;10568;48.176;16.316;2024-02-21T12:32:12;3.47;;;1.10;;
20814;SDS011;10568;48.176;16.316;2024-02-21T12:34:39;3.83;;;1.10;;
20814;SDS011;10568;48.176;16.316;2024-02-21T12:37:21;5.90;;;1.13;;
20814;SDS011;10568;48.176;16.316;2024-02-21T12:39:51;3.13;;;1.00;;
20814;SDS011;10568;48.176;16.316;2024-02-21T12:42:18;7.20;;;1.10;;
20814;SDS011;10568;48.176;16.316;2024-02-21T12:44:46;4.07;;;0.93;;
20814;SDS011;10568;48.176;16.316;2024-02-21T12:47:14;2.50;;;1.00;;
20814;SDS011;10568;48.176;16.316;2024-02-21T12:49:42;1.67;;;0.83;;
20814;SDS011;10568;48.176;16.316;2024-02-21T12:52:12;3.13;;;0.90;;
20814;SDS011;10568;48.176;16.316;2024-02-21T12:54:40;2.20;;;0.90;;
20814;SDS011;10568;48.176;16.316;2024-02-21T12:57:09;2.70;;;0.93;;
20814;SDS011;10568;48.176;16.316;2024-02-21T12:59:36;2.70;;;0.97;;
20814;SDS011;10568;48.176;16.316;2024-02-21T13:02:04;3.37;;;1.40;;
20814;SDS011;10568;48.176;16.316;2024-02-21T13:04:31;4.00;;;1.07;;
20814;SDS011;10568;48.176;16.316;2024-02-21T13:06:59;2.20;;;1.00;;
20814;SDS011;10568;48.176;16.316;2024-02-21T13:09:26;4.57;;;1.30;;
20814;SDS011;10568;48.176;16.316;2024-02-21T13:11:54;3.80;;;0.90;;
20814;SDS011;10568;48.176;16.316;2024-02-21T13:14:22;2.13;;;0.93;;
20814;SDS011;10568;48.176;16.316;2024-02-21T13:16:50;3.90;;;0.97;;
20814;SDS011;10568;48.176;16.316;2024-02-21T13:19:17;2.93;;;1.00;;
20814;SDS011;10568;48.176;16.316;2024-02-21T13:21:45;2.87;;;0.90;;
20814;SDS011;10568;48.176;16.316;2024-02-21T13:24:13;4.37;;;1.20;;
20814;SDS011;10568;48.176;16.316;2024-02-21T13:26:40;3.90;;;1.40;;
20814;SDS011;10568;48.176;16.316;2024-02-21T13:29:08;3.43;;;1.33;;
20814;SDS011;10568;48.176;16.316;2024-02-21T13:31:41;5.43;;;1.00;;
20814;SDS011;10568;48.176;16.316;2024-02-21T13:34:09;2.73;;;1.03;;
20814;SDS011;10568;48.176;16.316;2024-02-21T13:36:38;4.10;;;0.90;;
20814;SDS011;10568;48.176;16.316;2024-02-21T13:39:05;2.87;;;0.83;;
20814;SDS011;10568;48.176;16.316;2024-02-21T13:41:34;1.57;;;0.70;;
20814;SDS011;10568;48.176;16.316;2024-02-21T13:44:02;4.40;;;1.00;;
20814;SDS011;10568;48.176;16.316;2024-02-21T13:46:30;2.60;;;1.00;;
20814;SDS011;10568;48.176;16.316;2024-02-21T13:49:02;4.23;;;1.37;;
20814;SDS011;10568;48.176;16.316;2024-02-21T13:51:34;2.63;;;1.00;;
20814;SDS011;10568;48.176;16.316;2024-02-21T13:54:04;3.80;;;1.33;;
20814;SDS011;10568;48.176;16.316;2024-02-21T13:56:36;3.30;;;1.07;;
20814;SDS011;10568;48.176;16.316;2024-02-21T13:59:03;1.97;;;0.90;;
20814;SDS011;10568;48.176;16.316;2024-02-21T14:01:31;2.60;;;0.93;;
20814;SDS011;10568;48.176;16.316;2024-02-21T14:03:59;2.60;;;1.10;;
20814;SDS011;10568;48.176;16.316;2024-02-21T14:06:27;1.50;;;0.90;;
20814;SDS011;10568;48.176;16.316;2024-02-21T14:08:54;4.47;;;1.00;;
20814;SDS011;10568;48.176;16.316;2024-02-21T14:11:23;3.10;;;1.10;;
20814;SDS011;10568;48.176;16.316;2024-02-21T14:13:51;1.60;;;0.80;;
20814;SDS011;10568;48.176;16.316;2024-02-21T14:16:19;1.60;;;0.60;;
20814;SDS011;10568;48.176;16.316;2024-02-21T14:18:46;2.23;;;0.80;;
20814;SDS011;10568;48.176;16.316;2024-02-21T14:21:15;3.27;;;1.20;;
20814;SDS011;10568;48.176;16.316;2024-02-21T14:23:42;2.20;;;0.90;;
20814;SDS011;10568;48.176;16.316;2024-02-21T14:26:11;2.03;;;1.10;;
20814;SDS011;10568;48.176;16.316;2024-02-21T14:28:39;4.83;;;1.03;;
20814;SDS011;10568;48.176;16.316;2024-02-21T14:31:08;2.17;;;0.70;;
20814;SDS011;10568;48.176;16.316;2024-02-21T14:33:37;2.97;;;0.90;;
20814;SDS011;10568;48.176;16.316;2024-02-21T14:36:05;3.53;;;1.10;;
20814;SDS011;10568;48.176;16.316;2024-02-21T14:38:34;3.17;;;1.10;;
20814;SDS011;10568;48.176;16.316;2024-02-21T14:41:02;4.17;;;0.97;;
20814;SDS011;10568;48.176;16.316;2024-02-21T14:43:30;3.97;;;1.30;;
20814;SDS011;10568;48.176;16.316;2024-02-21T14:45:57;2.47;;;1.10;;
20814;SDS011;10568;48.176;16.316;2024-02-21T14:48:25;4.47;;;1.10;;
20814;SDS011;10568;48.176;16.316;2024-02-21T14:50:55;3.30;;;1.10;;
20814;SDS011;10568;48.176;16.316;2024-02-21T14:53:22;4.07;;;1.20;;